createdAt,value
2023-02-27T00:00:24.274Z,6.68
2023-02-27T00:03:10.158Z,6.62
2023-02-27T00:05:55.963Z,6.34
2023-02-27T00:08:41.923Z,6.50
2023-02-27T00:11:28.444Z,6.38
2023-02-27T00:14:14.703Z,6.37
2023-02-27T00:17:00.548Z,6.57
2023-02-27T00:19:46.498Z,6.69
2023-02-27T00:22:33.734Z,6.62
2023-02-27T00:25:19.669Z,6.32
2023-02-27T00:28:05.528Z,6.45
2023-02-27T00:30:51.419Z,6.10
2023-02-27T00:33:37.437Z,6.47
2023-02-27T00:36:23.124Z,6.27
2023-02-27T00:39:09.034Z,6.59
2023-02-27T00:41:55.162Z,6.80
2023-02-27T00:44:41.008Z,6.23
2023-02-27T00:47:26.771Z,6.62
2023-02-27T00:50:12.608Z,6.80
2023-02-27T00:52:58.530Z,7.02
2023-02-27T00:55:44.476Z,6.50
2023-02-27T00:58:30.362Z,6.56
2023-02-27T01:01:16.386Z,6.48
2023-02-27T01:04:02.355Z,6.67
2023-02-27T01:06:48.158Z,6.73
2023-02-27T01:09:34.054Z,6.81
2023-02-27T01:12:19.898Z,6.73
2023-02-27T01:15:05.848Z,6.81
2023-02-27T01:17:51.744Z,6.38
2023-02-27T01:20:37.756Z,7.40
2023-02-27T01:23:23.735Z,7.09
2023-02-27T01:26:09.679Z,6.84
2023-02-27T01:28:55.384Z,6.93
2023-02-27T01:31:41.271Z,6.60
2023-02-27T01:34:27.169Z,7.23
2023-02-27T01:37:12.946Z,6.85
2023-02-27T01:39:58.962Z,6.73
2023-02-27T01:42:44.835Z,7.11
2023-02-27T01:45:30.708Z,6.99
2023-02-27T01:48:16.737Z,7.45
2023-02-27T01:51:02.584Z,7.22
2023-02-27T01:53:48.493Z,6.82
2023-02-27T01:56:34.303Z,7.17
2023-02-27T01:59:20.285Z,6.68
2023-02-27T02:02:06.111Z,7.05
2023-02-27T02:04:52.017Z,7.22
2023-02-27T02:07:37.811Z,7.43
2023-02-27T02:10:23.671Z,6.72
2023-02-27T02:13:09.586Z,7.09
2023-02-27T02:15:55.620Z,7.15
2023-02-27T02:18:41.357Z,7.09
2023-02-27T02:21:27.545Z,7.08
2023-02-27T02:24:13.552Z,6.81
2023-02-27T02:26:59.353Z,7.12
2023-02-27T02:29:45.279Z,7.10
2023-02-27T02:32:33.280Z,7.44
2023-02-27T02:35:19.158Z,7.11
2023-02-27T02:38:05.058Z,7.34
2023-02-27T02:40:51.012Z,7.24
2023-02-27T02:43:36.907Z,7.12
2023-02-27T02:46:22.871Z,7.36
2023-02-27T02:49:08.783Z,7.55
2023-02-27T02:51:56.698Z,7.10
2023-02-27T02:54:42.640Z,7.65
2023-02-27T02:57:28.671Z,7.36
2023-02-27T03:00:14.667Z,7.37
2023-02-27T03:03:00.410Z,7.35
2023-02-27T03:05:46.357Z,7.28
2023-02-27T03:08:32.239Z,7.21
2023-02-27T03:11:18.020Z,7.31
2023-02-27T03:14:03.852Z,7.45
2023-02-27T03:16:49.742Z,7.80
2023-02-27T03:19:35.564Z,7.85
2023-02-27T03:22:21.440Z,7.25
2023-02-27T03:25:07.308Z,7.39
2023-02-27T03:27:53.335Z,7.85
2023-02-27T03:30:39.309Z,7.76
2023-02-27T03:33:25.246Z,7.51
2023-02-27T03:36:13.111Z,7.47
2023-02-27T03:38:58.987Z,7.41
2023-02-27T03:41:44.812Z,7.35
2023-02-27T03:44:30.627Z,7.56
2023-02-27T03:47:16.358Z,7.47
2023-02-27T03:50:02.358Z,7.46
2023-02-27T03:52:48.382Z,7.57
2023-02-27T03:55:34.212Z,7.13
2023-02-27T03:58:20.173Z,7.69
2023-02-27T04:01:06.142Z,7.26
2023-02-27T04:03:52.047Z,7.80
2023-02-27T04:06:38.030Z,7.30
2023-02-27T04:09:23.874Z,7.24
2023-02-27T04:12:09.802Z,7.28
2023-02-27T04:14:55.732Z,7.54
2023-02-27T04:17:41.511Z,7.38
2023-02-27T04:20:27.514Z,7.77
2023-02-27T04:23:13.374Z,7.31
2023-02-27T04:25:59.220Z,7.43
2023-02-27T04:28:45.175Z,7.29
2023-02-27T04:31:31.520Z,7.53
2023-02-27T04:34:17.924Z,7.21
2023-02-27T04:37:03.868Z,7.83
2023-02-27T04:39:49.630Z,7.81
2023-02-27T04:42:35.510Z,7.85
2023-02-27T04:45:21.269Z,7.77
2023-02-27T04:48:07.095Z,8.00
2023-02-27T04:50:52.891Z,7.84
2023-02-27T04:53:38.597Z,7.98
2023-02-27T04:56:24.457Z,8.16
2023-02-27T04:59:10.415Z,8.14
2023-02-27T05:01:56.370Z,8.23
2023-02-27T05:04:42.747Z,8.18
2023-02-27T05:07:28.606Z,8.14
2023-02-27T05:10:14.526Z,8.21
2023-02-27T05:13:00.504Z,8.12
2023-02-27T05:15:46.432Z,8.62
2023-02-27T05:18:32.283Z,8.77
2023-02-27T05:21:18.149Z,8.55
2023-02-27T05:24:03.965Z,8.70
2023-02-27T05:26:49.890Z,8.46
2023-02-27T05:29:35.721Z,8.37
2023-02-27T05:32:21.786Z,8.30
2023-02-27T05:35:07.986Z,8.51
2023-02-27T05:37:53.806Z,8.89
2023-02-27T05:40:39.709Z,8.61
2023-02-27T05:43:25.608Z,8.91
2023-02-27T05:46:11.501Z,8.77
2023-02-27T05:48:57.563Z,9.03
2023-02-27T05:51:43.376Z,8.92
2023-02-27T05:54:29.151Z,8.17
2023-02-27T05:57:15.142Z,8.56
2023-02-27T06:00:00.917Z,8.54
2023-02-27T06:02:46.719Z,8.88
2023-02-27T06:05:32.641Z,8.78
2023-02-27T06:08:18.530Z,8.61
2023-02-27T06:11:04.468Z,8.76
2023-02-27T06:13:50.426Z,8.55
2023-02-27T06:16:36.556Z,8.86
2023-02-27T06:19:22.696Z,8.83
2023-02-27T06:22:08.315Z,8.89
2023-02-27T06:24:54.268Z,8.88
2023-02-27T06:27:40.065Z,8.66
2023-02-27T06:30:25.929Z,8.99
2023-02-27T06:33:11.792Z,8.59
2023-02-27T06:35:57.656Z,9.41
2023-02-27T06:38:43.662Z,8.69
2023-02-27T06:41:29.514Z,9.18
2023-02-27T06:44:15.269Z,8.66
2023-02-27T06:47:00.995Z,9.03
2023-02-27T06:49:46.780Z,8.61
2023-02-27T06:52:32.800Z,8.77
2023-02-27T06:55:18.852Z,8.88
2023-02-27T06:58:04.614Z,9.07
2023-02-27T07:00:50.593Z,8.60
2023-02-27T07:03:36.442Z,8.99
2023-02-27T07:06:22.246Z,8.79
2023-02-27T07:09:28.295Z,8.60
2023-02-27T07:12:14.257Z,8.88
2023-02-27T07:15:00.134Z,8.54
2023-02-27T07:17:46.051Z,8.32
2023-02-27T07:20:31.841Z,9.16
2023-02-27T07:23:17.744Z,8.95
2023-02-27T07:26:03.673Z,8.53
2023-02-27T07:28:49.472Z,8.39
2023-02-27T07:31:35.385Z,8.86
2023-02-27T07:34:21.229Z,8.66
2023-02-27T07:37:07.183Z,8.43
2023-02-27T07:39:53.237Z,8.42
2023-02-27T07:42:39.386Z,8.02
2023-02-27T07:45:25.346Z,7.85
2023-02-27T07:48:11.203Z,8.45
2023-02-27T07:50:56.937Z,7.98
2023-02-27T07:53:42.852Z,8.44
2023-02-27T07:56:29.071Z,7.97
2023-02-27T07:59:17.066Z,7.96
2023-02-27T08:02:03.073Z,8.23
2023-02-27T08:04:49.070Z,7.92
2023-02-27T08:07:35.010Z,8.14
2023-02-27T08:10:20.888Z,7.89
2023-02-27T08:13:06.844Z,8.36
2023-02-27T08:15:52.744Z,8.02
2023-02-27T08:18:38.897Z,8.02
2023-02-27T08:21:24.931Z,8.46
2023-02-27T08:24:11.288Z,8.66
2023-02-27T08:26:57.221Z,8.08
2023-02-27T08:29:43.123Z,7.75
2023-02-27T08:32:29.229Z,7.69
2023-02-27T08:35:15.157Z,8.51
2023-02-27T08:38:01.054Z,8.68
2023-02-27T08:40:47.053Z,8.29
2023-02-27T08:43:32.914Z,7.95
2023-02-27T08:46:18.809Z,8.69
2023-02-27T08:49:04.534Z,8.45
2023-02-27T08:51:50.405Z,8.84
2023-02-27T08:54:36.500Z,8.16
2023-02-27T08:57:22.324Z,9.20
2023-02-27T09:00:08.335Z,8.75
2023-02-27T09:02:57.878Z,8.48
2023-02-27T09:05:43.727Z,8.93
2023-02-27T09:08:29.959Z,8.37
2023-02-27T09:11:16.118Z,8.51
2023-02-27T09:14:02.019Z,8.66
2023-02-27T09:16:47.982Z,8.05
2023-02-27T09:19:33.828Z,8.91
2023-02-27T09:22:19.649Z,8.90
2023-02-27T09:25:05.467Z,8.81
2023-02-27T09:27:51.317Z,8.44
2023-02-27T09:30:37.327Z,8.68
2023-02-27T09:33:23.487Z,8.64
2023-02-27T09:36:09.490Z,8.32
2023-02-27T09:38:55.462Z,8.54
2023-02-27T09:41:41.344Z,8.34
2023-02-27T09:44:39.747Z,8.62
2023-02-27T09:47:29.755Z,8.51
2023-02-27T09:50:15.469Z,8.85
2023-02-27T09:53:01.360Z,8.68
2023-02-27T09:55:47.350Z,9.01
2023-02-27T09:58:33.124Z,8.80
2023-02-27T10:01:18.988Z,9.07
2023-02-27T10:04:04.846Z,8.61
2023-02-27T10:06:50.783Z,8.53
2023-02-27T10:09:36.734Z,8.85
2023-02-27T10:12:22.542Z,8.90
2023-02-27T10:15:08.560Z,8.75
2023-02-27T10:17:54.263Z,8.81
2023-02-27T10:20:40.222Z,9.36
2023-02-27T10:23:26.062Z,9.05
2023-02-27T10:26:12.035Z,8.53
2023-02-27T10:28:58.322Z,8.92
2023-02-27T10:31:44.106Z,8.92
2023-02-27T10:34:30.996Z,8.80
2023-02-27T10:37:16.835Z,8.86
2023-02-27T10:40:02.782Z,8.86
2023-02-27T10:42:49.359Z,8.98
2023-02-27T10:45:39.186Z,8.67
2023-02-27T10:48:25.248Z,8.71
2023-02-27T10:51:11.059Z,8.87
2023-02-27T10:53:58.042Z,8.96
2023-02-27T10:56:43.985Z,9.43
2023-02-27T10:59:29.729Z,8.61
2023-02-27T11:02:15.685Z,8.67
2023-02-27T11:05:01.526Z,8.53
2023-02-27T11:07:47.318Z,8.87
2023-02-27T11:10:33.292Z,8.77
2023-02-27T11:13:19.087Z,9.48
2023-02-27T11:16:05.121Z,8.78
2023-02-27T11:18:50.939Z,8.95
2023-02-27T11:21:36.859Z,9.27
2023-02-27T11:24:22.680Z,8.83
2023-02-27T11:27:08.561Z,9.09
2023-02-27T11:29:54.480Z,8.98
2023-02-27T11:32:40.625Z,9.07
2023-02-27T11:35:26.441Z,8.93
2023-02-27T11:38:12.314Z,9.17
2023-02-27T11:40:58.269Z,9.14
2023-02-27T11:43:44.234Z,8.77
2023-02-27T11:46:45.136Z,9.11
2023-02-27T11:49:35.511Z,9.06
2023-02-27T11:52:21.460Z,9.22
2023-02-27T11:55:07.444Z,9.47
2023-02-27T11:57:53.406Z,9.51
2023-02-27T12:00:39.308Z,9.72
2023-02-27T12:03:25.331Z,9.14
2023-02-27T12:06:11.134Z,9.72
2023-02-27T12:08:57.059Z,9.44
2023-02-27T12:11:43.153Z,9.06
2023-02-27T12:14:29.659Z,9.15
2023-02-27T12:17:15.921Z,9.33
2023-02-27T12:20:02.006Z,8.97
2023-02-27T12:22:47.865Z,9.10
2023-02-27T12:25:35.276Z,9.50
2023-02-27T12:28:21.259Z,8.93
2023-02-27T12:31:07.240Z,9.34
2023-02-27T12:33:53.324Z,9.18
2023-02-27T12:36:39.072Z,9.04
2023-02-27T12:39:24.999Z,9.57
2023-02-27T12:42:10.965Z,9.86
2023-02-27T12:44:56.700Z,9.79
2023-02-27T12:47:42.802Z,9.82
2023-02-27T12:50:28.604Z,9.61
2023-02-27T12:53:14.663Z,9.62
2023-02-27T12:56:00.435Z,9.74
2023-02-27T12:58:46.363Z,10.31
2023-02-27T13:01:32.355Z,9.54
2023-02-27T13:04:18.766Z,10.02
2023-02-27T13:07:04.752Z,9.99
2023-02-27T13:09:50.573Z,9.95
2023-02-27T13:12:36.394Z,9.81
2023-02-27T13:15:22.314Z,10.27
2023-02-27T13:18:08.375Z,10.24
2023-02-27T13:20:54.216Z,10.48
2023-02-27T13:23:40.265Z,10.19
2023-02-27T13:26:26.195Z,10.50
2023-02-27T13:29:12.047Z,9.95
2023-02-27T13:31:58.059Z,10.64
2023-02-27T13:34:43.843Z,10.39
2023-02-27T13:37:29.852Z,10.57
2023-02-27T13:40:15.893Z,10.10
2023-02-27T13:43:01.698Z,10.00
2023-02-27T13:45:47.720Z,10.32
2023-02-27T13:48:34.033Z,10.35
2023-02-27T13:51:20.023Z,10.46
2023-02-27T13:54:06.048Z,10.42
2023-02-27T13:56:52.000Z,10.45
2023-02-27T13:59:37.918Z,10.91
2023-02-27T14:02:23.966Z,10.37
2023-02-27T14:05:09.854Z,10.57
2023-02-27T14:07:55.708Z,10.70
2023-02-27T14:10:41.652Z,11.32
2023-02-27T14:13:27.585Z,11.08
2023-02-27T14:16:13.550Z,11.28
2023-02-27T14:18:59.398Z,11.88
2023-02-27T14:21:45.350Z,10.99
2023-02-27T14:24:31.317Z,11.13
2023-02-27T14:27:17.134Z,12.03
2023-02-27T14:30:03.064Z,11.49
2023-02-27T14:32:48.998Z,11.58
2023-02-27T14:35:34.856Z,11.04
2023-02-27T14:38:20.981Z,11.66
2023-02-27T14:41:06.785Z,11.77
2023-02-27T14:43:52.812Z,11.53
2023-02-27T14:46:38.787Z,11.04
2023-02-27T14:49:24.604Z,11.69
2023-02-27T14:52:10.522Z,11.58
2023-02-27T14:54:56.503Z,12.25
2023-02-27T14:57:42.453Z,11.79
2023-02-27T15:00:28.392Z,11.44
2023-02-27T15:03:14.272Z,11.40
2023-02-27T15:06:00.186Z,11.97
2023-02-27T15:08:46.057Z,12.07
2023-02-27T15:11:31.950Z,17.51
2023-02-27T15:14:17.792Z,12.33
2023-02-27T15:17:03.819Z,11.80
2023-02-27T15:19:49.870Z,15.87
2023-02-27T15:22:39.381Z,12.70
2023-02-27T15:25:25.799Z,13.03
2023-02-27T15:28:11.599Z,12.68
2023-02-27T15:30:57.617Z,12.57
2023-02-27T15:33:43.527Z,12.74
2023-02-27T15:36:29.414Z,12.15
2023-02-27T15:39:15.383Z,12.47
2023-02-27T15:42:01.271Z,14.34
2023-02-27T15:44:47.231Z,14.34
2023-02-27T15:47:33.233Z,12.72
2023-02-27T15:50:19.211Z,12.76
2023-02-27T15:53:06.224Z,12.43
2023-02-27T15:55:52.288Z,12.85
2023-02-27T15:58:38.268Z,12.62
2023-02-27T16:01:24.268Z,12.80
2023-02-27T16:04:10.195Z,12.91
2023-02-27T16:06:56.086Z,12.99
2023-02-27T16:09:42.059Z,13.32
2023-02-27T16:12:28.001Z,14.11
2023-02-27T16:15:13.931Z,12.72
2023-02-27T16:17:59.778Z,12.68
2023-02-27T16:20:45.648Z,13.34
2023-02-27T16:23:31.612Z,12.87
2023-02-27T16:26:17.575Z,13.45
2023-02-27T16:29:03.661Z,13.58
2023-02-27T16:31:49.760Z,12.84
2023-02-27T16:34:45.168Z,13.95
2023-02-27T16:37:31.979Z,12.97
2023-02-27T16:40:17.964Z,13.18
2023-02-27T16:43:03.956Z,13.50
2023-02-27T16:45:49.847Z,13.72
2023-02-27T16:48:35.744Z,13.75
2023-02-27T16:51:21.760Z,14.14
2023-02-27T16:54:07.685Z,14.14
2023-02-27T16:56:53.584Z,13.40
2023-02-27T16:59:39.468Z,13.98
2023-02-27T17:02:25.581Z,13.60
2023-02-27T17:05:11.553Z,14.18
2023-02-27T17:07:57.418Z,14.57
2023-02-27T17:10:43.234Z,14.30
2023-02-27T17:13:29.086Z,14.06
2023-02-27T17:16:15.085Z,14.02
2023-02-27T17:19:01.074Z,14.69
2023-02-27T17:21:46.993Z,14.93
2023-02-27T17:24:32.927Z,14.55
2023-02-27T17:27:18.943Z,15.11
2023-02-27T17:30:04.696Z,15.00
2023-02-27T17:32:50.734Z,14.72
2023-02-27T17:35:36.773Z,14.99
2023-02-27T17:38:22.726Z,15.38
2023-02-27T17:41:08.539Z,15.14
2023-02-27T17:43:54.456Z,15.34
2023-02-27T17:46:40.487Z,15.70
2023-02-27T17:49:26.481Z,16.35
2023-02-27T17:52:12.397Z,16.25
2023-02-27T17:54:58.360Z,16.13
2023-02-27T17:57:44.212Z,16.09
2023-02-27T18:00:30.027Z,16.91
2023-02-27T18:03:15.958Z,16.63
2023-02-27T18:06:01.732Z,16.31
2023-02-27T18:08:47.763Z,16.19
2023-02-27T18:11:33.821Z,16.61
2023-02-27T18:14:19.854Z,16.55
2023-02-27T18:17:05.876Z,16.38
2023-02-27T18:19:51.867Z,16.82
2023-02-27T18:22:37.694Z,16.88
2023-02-27T18:25:23.764Z,17.07
2023-02-27T18:28:09.551Z,16.64
2023-02-27T18:30:55.581Z,16.59
2023-02-27T18:33:41.632Z,16.49
2023-02-27T18:36:27.897Z,17.23
2023-02-27T18:39:13.994Z,17.40
2023-02-27T18:41:59.919Z,17.51
2023-02-27T18:44:45.788Z,17.25
2023-02-27T18:47:31.779Z,17.04
2023-02-27T18:50:17.647Z,17.35
2023-02-27T18:53:03.606Z,17.78
2023-02-27T18:55:49.576Z,17.60
2023-02-27T18:58:35.413Z,17.46
2023-02-27T19:01:21.296Z,17.71
2023-02-27T19:04:07.378Z,17.69
2023-02-27T19:06:53.598Z,18.37
2023-02-27T19:09:39.515Z,17.88
2023-02-27T19:12:25.410Z,20.69
2023-02-27T19:15:11.376Z,18.76
2023-02-27T19:17:57.195Z,18.79
2023-02-27T19:20:43.084Z,18.41
2023-02-27T19:23:28.972Z,18.24
2023-02-27T19:26:14.914Z,18.55
2023-02-27T19:29:00.821Z,19.18
2023-02-27T19:31:46.967Z,19.08
2023-02-27T19:34:33.109Z,19.87
2023-02-27T19:37:18.966Z,19.43
2023-02-27T19:40:04.951Z,20.13
2023-02-27T19:42:50.966Z,18.84
2023-02-27T19:45:36.863Z,19.45
2023-02-27T19:48:23.057Z,19.43
2023-02-27T19:51:09.025Z,19.13
2023-02-27T19:53:55.252Z,18.66
2023-02-27T19:56:43.257Z,20.23
2023-02-27T19:59:29.109Z,18.77
2023-02-27T20:02:15.172Z,18.87
2023-02-27T20:05:00.894Z,20.16
2023-02-27T20:07:48.765Z,19.49
2023-02-27T20:10:34.874Z,20.58
2023-02-27T20:13:22.767Z,18.74
2023-02-27T20:16:08.652Z,18.46
2023-02-27T20:18:54.662Z,18.87
2023-02-27T20:21:40.499Z,19.74
2023-02-27T20:24:26.440Z,19.24
2023-02-27T20:27:12.201Z,18.54
2023-02-27T20:29:58.011Z,18.65
2023-02-27T20:32:43.894Z,18.32
2023-02-27T20:35:29.768Z,17.67
2023-02-27T20:38:15.739Z,18.48
2023-02-27T20:41:01.588Z,18.84
2023-02-27T20:43:47.460Z,19.27
2023-02-27T20:46:33.373Z,19.03
2023-02-27T20:49:19.231Z,19.41
2023-02-27T20:52:05.053Z,17.98
2023-02-27T20:54:51.002Z,18.67
2023-02-27T20:57:36.907Z,18.70
2023-02-27T21:00:22.776Z,18.50
2023-02-27T21:03:08.829Z,18.14
2023-02-27T21:05:54.723Z,18.07
2023-02-27T21:08:40.796Z,17.76
2023-02-27T21:11:26.910Z,17.51
2023-02-27T21:14:13.111Z,17.32
2023-02-27T21:16:59.042Z,17.11
2023-02-27T21:19:45.027Z,18.13
2023-02-27T21:22:30.978Z,17.72
2023-02-27T21:25:16.864Z,17.11
2023-02-27T21:28:02.860Z,16.92
2023-02-27T21:30:48.939Z,17.64
2023-02-27T21:33:34.875Z,17.10
2023-02-27T21:36:20.846Z,17.27
2023-02-27T21:39:06.908Z,17.29
2023-02-27T21:41:52.827Z,17.30
2023-02-27T21:44:38.822Z,17.07
2023-02-27T21:47:24.703Z,16.81
2023-02-27T21:50:10.683Z,17.59
2023-02-27T21:52:56.538Z,17.50
2023-02-27T21:55:42.426Z,16.90
2023-02-27T21:58:28.454Z,17.17
2023-02-27T22:01:14.531Z,17.13
2023-02-27T22:04:00.460Z,17.98
2023-02-27T22:06:46.338Z,17.19
2023-02-27T22:09:34.171Z,17.37
2023-02-27T22:12:20.099Z,17.27
2023-02-27T22:15:06.241Z,17.17
2023-02-27T22:17:52.159Z,16.55
2023-02-27T22:20:38.070Z,16.84
2023-02-27T22:23:23.944Z,17.30
2023-02-27T22:26:09.835Z,17.10
2023-02-27T22:28:55.663Z,17.33
2023-02-27T22:31:41.701Z,16.53
2023-02-27T22:34:27.882Z,16.68
2023-02-27T22:37:13.851Z,16.92
2023-02-27T22:39:59.667Z,17.31
2023-02-27T22:42:47.692Z,16.91
2023-02-27T22:45:33.527Z,17.30
2023-02-27T22:48:19.316Z,17.43
2023-02-27T22:51:05.267Z,17.81
2023-02-27T22:53:51.358Z,17.90
2023-02-27T22:56:37.240Z,17.87
2023-02-27T22:59:23.139Z,17.55
2023-02-27T23:02:09.079Z,17.82
2023-02-27T23:04:55.089Z,17.14
2023-02-27T23:07:41.142Z,17.40
2023-02-27T23:10:26.922Z,17.41
2023-02-27T23:13:13.059Z,17.44
2023-02-27T23:15:58.972Z,17.71
2023-02-27T23:18:44.872Z,17.31
2023-02-27T23:21:31.050Z,17.74
2023-02-27T23:24:17.103Z,17.77
2023-02-27T23:27:03.596Z,17.99
2023-02-27T23:29:50.693Z,17.64
2023-02-27T23:32:36.561Z,17.57
2023-02-27T23:35:22.628Z,17.16
2023-02-27T23:38:08.509Z,17.30
2023-02-27T23:40:54.334Z,18.04
2023-02-27T23:43:40.369Z,17.87
2023-02-27T23:46:26.296Z,17.73
2023-02-27T23:49:12.216Z,17.43
2023-02-27T23:51:58.087Z,17.69
2023-02-27T23:54:43.934Z,18.25
2023-02-27T23:57:29.917Z,18.15
